Time;durP1;ratioP1;P1;durP2;ratioP2;P2;SDS_P1;SDS_P2;PMS_P1;PMS_P2;Temp;Humidity;BMP_temperature;BMP_pressure;BME280_temperature;BME280_humidity;BME280_pressure;Samples;Min_cycle;Max_cycle;Signal;HPM_P1;HPM_P2
2022/08/26 00:00:55;;;;;;;11.07;6.50;;;;;;;19.16;100.00;101238.97;1931594;29;20109;-81
2022/08/26 00:01:54;;;;;;;12.45;6.20;;;;;;;19.09;100.00;101235.06;1931780;29;20047;-81
2022/08/26 00:02:51;;;;;;;14.55;6.85;;;;;;;19.10;100.00;101234.09;1938656;29;20110;-81
2022/08/26 00:03:49;;;;;;;11.77;7.00;;;;;;;19.09;100.00;101230.59;1939103;29;20105;-79
2022/08/26 00:04:46;;;;;;;12.65;7.53;;;;;;;19.04;100.00;101230.94;1939377;29;20031;-80
2022/08/26 00:05:45;;;;;;;16.70;7.38;;;;;;;19.08;100.00;101233.34;1939186;29;20032;-81
2022/08/26 00:06:42;;;;;;;17.00;7.80;;;;;;;19.10;100.00;101234.09;1939298;29;20126;-82
2022/08/26 00:07:40;;;;;;;17.95;6.90;;;;;;;19.11;100.00;101238.44;1939185;29;20506;-80
2022/08/26 00:08:37;;;;;;;15.13;7.45;;;;;;;19.11;100.00;101238.44;1939305;29;20047;-80
2022/08/26 00:09:36;;;;;;;15.02;7.43;;;;;;;19.11;100.00;101230.50;1939116;29;20047;-81
2022/08/26 00:10:34;;;;;;;17.58;7.95;;;;;;;19.07;100.00;101237.81;1939200;29;20052;-80
2022/08/26 00:11:32;;;;;;;17.05;7.85;;;;;;;19.03;100.00;101234.50;1939026;29;20039;-80
2022/08/26 00:12:29;;;;;;;13.18;7.25;;;;;;;19.05;100.00;101235.25;1931641;29;20032;-82
2022/08/26 00:13:27;;;;;;;17.65;7.95;;;;;;;19.09;100.00;101243.81;1931579;29;20036;-81
2022/08/26 00:14:25;;;;;;;18.20;9.30;;;;;;;19.07;100.00;101237.81;1938132;29;20040;-81
2022/08/26 00:15:24;;;;;;;13.10;8.70;;;;;;;19.09;100.00;101241.19;1939027;29;20042;-81
2022/08/26 00:16:24;;;;;;;15.82;9.30;;;;;;;19.03;100.00;101242.44;1939006;29;20047;-80
2022/08/26 00:17:22;;;;;;;19.95;10.25;;;;;;;19.01;100.00;101236.44;1924567;29;20046;-81
2022/08/26 00:18:20;;;;;;;15.98;9.63;;;;;;;19.02;100.00;101240.75;1931235;29;20064;-82
2022/08/26 00:19:20;;;;;;;14.80;9.95;;;;;;;19.01;100.00;101239.06;1938460;29;20044;-81
2022/08/26 00:20:26;;;;;;;14.32;9.88;;;;;;;19.02;100.00;101242.53;1939099;29;20051;-81
2022/08/26 00:21:24;;;;;;;17.85;10.63;;;;;;;19.01;100.00;101239.06;1939118;29;20035;-80
2022/08/26 00:22:21;;;;;;;16.60;10.75;;;;;;;19.00;100.00;101242.69;1938861;29;20131;-82
2022/08/26 00:23:19;;;;;;;16.30;10.60;;;;;;;19.03;100.00;101245.09;1939144;29;20123;-79
2022/08/26 00:24:19;;;;;;;17.90;10.85;;;;;;;19.02;100.00;101240.75;1938835;29;20473;-80
2022/08/26 00:25:17;;;;;;;17.98;10.75;;;;;;;19.00;100.00;101242.69;1939128;29;20039;-81
2022/08/26 00:26:14;;;;;;;22.85;10.98;;;;;;;18.97;100.00;101247.34;1931971;29;20071;-81
2022/08/26 00:27:12;;;;;;;17.23;9.98;;;;;;;18.97;100.00;101242.91;1931495;29;20042;-82
2022/08/26 00:28:09;;;;;;;14.77;10.98;;;;;;;19.03;100.00;101242.44;1937967;29;20056;-81
2022/08/26 00:29:07;;;;;;;18.83;10.85;;;;;;;19.00;100.00;101247.97;1939060;29;20129;-80
2022/08/26 00:30:12;;;;;;;17.38;11.27;;;;;;;18.98;100.00;101249.88;1938881;29;20039;-81
2022/08/26 00:31:09;;;;;;;17.45;10.43;;;;;;;18.97;100.00;101248.19;1938283;29;20482;-82
2022/08/26 00:32:07;;;;;;;17.77;10.90;;;;;;;18.95;100.00;101239.50;1946848;29;20023;-83
2022/08/26 00:33:05;;;;;;;16.63;10.63;;;;;;;18.98;100.00;101249.00;1939413;29;20058;-83
2022/08/26 00:34:05;;;;;;;18.80;10.52;;;;;;;19.01;100.00;101243.50;1939334;29;20055;-80
2022/08/26 00:35:04;;;;;;;21.35;11.63;;;;;;;18.95;100.00;101250.09;1946334;29;20141;-80
2022/08/26 00:36:02;;;;;;;17.08;10.80;;;;;;;18.93;100.00;101241.44;1940033;29;20099;-80
2022/08/26 00:37:00;;;;;;;18.67;10.60;;;;;;;18.95;100.00;101241.31;1939266;29;20020;-82
2022/08/26 00:37:59;;;;;;;17.00;10.63;;;;;;;18.94;100.00;101243.13;1931958;29;20024;-80
2022/08/26 00:38:57;;;;;;;16.10;10.60;;;;;;;18.93;100.00;101238.78;1938748;29;20133;-80
2022/08/26 00:39:55;;;;;;;16.48;10.73;;;;;;;18.96;100.00;101250.94;1938972;29;20345;-80
2022/08/26 00:40:55;;;;;;;15.30;10.70;;;;;;;18.95;100.00;101244.78;1939465;29;20039;-81
2022/08/26 00:41:53;;;;;;;18.38;10.90;;;;;;;18.94;100.00;101242.25;1946975;29;20122;-80
2022/08/26 00:42:50;;;;;;;19.15;11.10;;;;;;;18.89;100.00;101251.38;1946886;29;20381;-80
2022/08/26 00:43:48;;;;;;;13.48;10.00;;;;;;;18.89;100.00;101250.53;1946908;29;20023;-81
2022/08/26 00:44:45;;;;;;;17.67;11.32;;;;;;;18.87;100.00;101252.44;1940350;29;20042;-80
2022/08/26 00:45:49;;;;;;;19.85;10.30;;;;;;;18.88;100.00;101247.03;1946904;29;20462;-81
2022/08/26 00:46:53;;;;;;;23.55;10.68;;;;;;;18.87;100.00;101248.00;1939245;29;20055;-81
2022/08/26 00:47:59;;;;;;;19.48;10.73;;;;;;;18.89;100.00;101250.53;1931386;29;20036;-80
2022/08/26 00:49:06;;;;;;;18.30;10.20;;;;;;;18.87;100.00;101258.56;1923788;29;20041;-80
2022/08/26 00:50:11;;;;;;;17.55;10.35;;;;;;;18.88;100.00;101244.41;1924302;29;20051;-80
2022/08/26 00:51:22;;;;;;;17.50;10.70;;;;;;;18.89;100.00;101242.59;1931245;29;20040;-80
2022/08/26 00:52:22;;;;;;;17.33;10.50;;;;;;;18.88;100.00;101248.84;1931344;29;20119;-80
2022/08/26 00:53:22;;;;;;;14.98;10.05;;;;;;;18.88;100.00;101238.25;1931219;29;20643;-82
2022/08/26 00:54:22;;;;;;;;;;;;;;;18.87;100.00;101247.16;1931809;29;20058;-83
2022/08/26 00:55:33;;;;;;;18.58;10.82;;;;;;;18.85;100.00;101241.16;1923303;29;19948;-82
2022/08/26 00:56:59;;;;;;;17.42;10.77;;;;;;;18.87;100.00;101242.72;1924769;29;20532;-81
2022/08/26 00:57:56;;;;;;;16.13;10.23;;;;;;;18.88;100.00;101246.19;1931288;29;20048;-81
2022/08/26 00:58:59;;;;;;;16.45;10.00;;;;;;;18.83;100.00;101246.53;1931390;29;20050;-81
2022/08/26 01:00:00;;;;;;;16.35;10.55;;;;;;;18.84;100.00;101242.94;1931270;29;20036;-82
2022/08/26 01:00:58;;;;;;;16.65;9.93;;;;;;;18.82;100.00;101249.28;1931205;29;20406;-81
2022/08/26 01:01:56;;;;;;;16.88;9.57;;;;;;;18.83;100.00;101256.25;1931297;29;20047;-81
2022/08/26 01:02:59;;;;;;;16.75;9.98;;;;;;;18.83;100.00;101250.97;1924532;29;20166;-80
2022/08/26 01:03:57;;;;;;;18.15;9.82;;;;;;;18.83;100.00;101249.19;1931021;29;20079;-80
2022/08/26 01:05:01;;;;;;;20.23;10.65;;;;;;;18.81;100.00;101258.19;1931300;29;20091;-81
2022/08/26 01:06:02;;;;;;;18.80;10.30;;;;;;;18.79;100.00;101256.47;1930944;29;20040;-81
2022/08/26 01:07:00;;;;;;;15.38;9.88;;;;;;;18.81;100.00;101251.06;1923901;29;20142;-82
2022/08/26 01:07:58;;;;;;;15.15;10.20;;;;;;;18.82;100.00;101255.41;1923850;29;20119;-80
2022/08/26 01:08:55;;;;;;;15.43;9.82;;;;;;;18.82;100.00;101246.63;1923021;29;20051;-81
2022/08/26 01:09:55;;;;;;;15.23;9.57;;;;;;;18.79;100.00;101245.06;1923603;29;20233;-83
2022/08/26 01:10:56;;;;;;;20.97;9.93;;;;;;;18.78;100.00;101253.94;1923757;29;20036;-80
2022/08/26 01:11:58;;;;;;;16.13;10.07;;;;;;;18.81;100.00;101252.88;1931049;29;20040;-80
2022/08/26 01:13:00;;;;;;;14.98;9.57;;;;;;;18.82;100.00;101255.41;1923821;29;20037;-80
2022/08/26 01:14:03;;;;;;;16.35;9.98;;;;;;;18.75;100.00;101252.34;1923547;29;20052;-80
2022/08/26 01:15:02;;;;;;;17.40;9.68;;;;;;;18.77;100.00;101253.09;1931235;29;20036;-81
2022/08/26 01:16:04;;;;;;;18.58;10.13;;;;;;;18.77;100.00;101255.75;1931058;29;20516;-82
2022/08/26 01:17:06;;;;;;;17.75;9.52;;;;;;;18.76;100.00;101246.13;1931386;29;20534;-82
2022/08/26 01:18:05;;;;;;;19.90;9.82;;;;;;;18.75;100.00;101255.00;1931195;29;20075;-81
2022/08/26 01:19:25;;;;;;;19.02;9.85;;;;;;;18.80;100.00;101257.31;1931199;29;20451;-80
2022/08/26 01:20:59;;;;;;;16.52;9.82;;;;;;;18.76;100.00;101251.41;1941294;29;20446;-81
2022/08/26 01:22:23;;;;;;;16.52;9.20;;;;;;;18.79;100.00;101255.63;1934284;29;20169;-81
2022/08/26 01:23:22;;;;;;;15.68;9.30;;;;;;;18.82;100.00;101249.28;1933527;29;20044;-82
2022/08/26 01:24:20;;;;;;;14.23;9.77;;;;;;;18.83;100.00;101248.31;1938888;29;20042;-81
2022/08/26 01:25:20;;;;;;;16.90;9.18;;;;;;;18.83;100.00;101245.69;1946077;29;20330;-81
2022/08/26 01:26:24;;;;;;;16.23;9.63;;;;;;;18.79;100.00;101240.59;1939079;29;20047;-82
2022/08/26 01:27:22;;;;;;;17.80;8.98;;;;;;;18.80;100.00;101241.47;1939087;29;20543;-81
2022/08/26 01:28:27;;;;;;;19.10;8.88;;;;;;;18.85;100.00;101249.06;1938930;29;20494;-80
2022/08/26 01:29:27;;;;;;;16.10;8.88;;;;;;;18.88;100.00;101243.53;1931877;29;20078;-81
2022/08/26 01:30:26;;;;;;;23.73;9.18;;;;;;;18.85;100.00;101241.16;1931622;29;20025;-80
2022/08/26 01:31:28;;;;;;;14.88;8.57;;;;;;;18.81;100.00;101245.78;1938692;29;20038;-81
2022/08/26 01:32:27;;;;;;;15.82;8.70;;;;;;;18.80;100.00;101241.47;1939024;29;20043;-82
2022/08/26 01:33:44;;;;;;;18.58;8.68;;;;;;;18.82;100.00;101236.88;1946531;28;20360;-81
2022/08/26 01:34:42;;;;;;;11.50;7.90;;;;;;;18.85;100.00;101238.50;1946467;29;20031;-80
2022/08/26 01:35:41;;;;;;;13.82;7.90;;;;;;;18.87;100.00;101247.16;1939135;29;20356;-80
2022/08/26 01:36:40;;;;;;;14.00;7.75;;;;;;;18.88;100.00;101244.41;1931468;29;20032;-81
2022/08/26 01:37:39;;;;;;;13.48;7.80;;;;;;;18.84;100.00;101236.78;1938659;29;20038;-82
2022/08/26 01:38:39;;;;;;;11.30;7.10;;;;;;;18.87;100.00;101241.84;1938552;29;20035;-82
2022/08/26 01:39:38;;;;;;;18.48;7.65;;;;;;;18.83;100.00;101235.97;1939073;29;20291;-81
2022/08/26 01:40:38;;;;;;;15.55;7.85;;;;;;;18.88;100.00;101236.47;1939512;29;20056;-80
2022/08/26 01:41:39;;;;;;;17.23;7.72;;;;;;;18.94;100.00;101236.97;1937703;29;20398;-80
2022/08/26 01:42:39;;;;;;;13.07;7.43;;;;;;;18.95;100.00;101239.50;1946374;29;20094;-81
2022/08/26 01:43:38;;;;;;;;;;;;;;;18.93;100.00;101246.72;1946721;28;20366;-81
2022/08/26 01:44:54;;;;;;;13.35;6.53;;;;;;;18.92;100.00;101251.16;1938851;29;20071;-80
2022/08/26 01:45:53;;;;;;;12.23;6.82;;;;;;;18.86;100.00;101250.75;1940244;29;20057;-80
2022/08/26 01:46:55;;;;;;;9.38;6.40;;;;;;;18.87;100.00;101248.00;1946530;29;20054;-81
2022/08/26 01:47:57;;;;;;;16.42;7.10;;;;;;;18.86;100.00;101250.75;1938842;29;20035;-81
2022/08/26 01:49:00;;;;;;;12.43;6.82;;;;;;;18.88;100.00;101251.47;1938961;29;20031;-81
2022/08/26 01:50:05;;;;;;;14.13;6.65;;;;;;;18.89;100.00;101253.19;1946295;29;20038;-80
2022/08/26 01:51:06;;;;;;;10.57;6.68;;;;;;;18.87;100.00;101252.44;1938799;29;20024;-80
2022/08/26 01:52:07;;;;;;;11.40;6.90;;;;;;;18.88;100.00;101251.47;1931193;29;20111;-82
2022/08/26 01:53:12;;;;;;;15.57;6.68;;;;;;;18.88;100.00;101254.97;1931416;29;20024;-81
2022/08/26 01:54:11;;;;;;;11.20;6.55;;;;;;;18.86;100.00;101253.41;1938700;29;20035;-81
2022/08/26 01:55:13;;;;;;;12.45;6.43;;;;;;;18.86;100.00;101242.81;1938926;29;20070;-82
2022/08/26 01:56:11;;;;;;;12.27;5.95;;;;;;;18.86;100.00;101248.09;1946282;28;20024;-81
2022/08/26 01:57:14;;;;;;;13.55;6.03;;;;;;;18.87;100.00;101248.00;1946558;29;20108;-80
2022/08/26 01:58:23;;;;;;;17.20;5.97;;;;;;;18.86;100.00;101245.47;1946303;28;20042;-82
2022/08/26 01:59:23;;;;;;;9.90;5.67;;;;;;;18.86;100.00;101243.69;1946461;29;20051;-81
2022/08/26 02:00:23;;;;;;;12.25;6.00;;;;;;;18.85;100.00;101243.78;1938601;29;20374;-81
2022/08/26 02:01:23;;;;;;;14.32;5.93;;;;;;;18.86;100.00;101250.75;1931371;29;20035;-82
2022/08/26 02:02:22;;;;;;;13.38;6.00;;;;;;;18.85;100.00;101244.59;1938669;29;20126;-80
2022/08/26 02:03:21;;;;;;;12.48;5.60;;;;;;;18.87;100.00;101250.66;1946067;29;20039;-81
2022/08/26 02:04:42;;;;;;;8.07;5.53;;;;;;;18.88;100.00;101259.41;1938909;29;20035;-81
2022/08/26 02:05:42;;;;;;;10.48;5.95;;;;;;;18.84;100.00;101247.34;1946352;29;20035;-81
2022/08/26 02:06:43;;;;;;;10.63;5.70;;;;;;;18.85;100.00;101251.72;1937970;29;20034;-82
2022/08/26 02:07:43;;;;;;;13.27;6.13;;;;;;;18.82;100.00;101250.09;1938767;29;20122;-80
2022/08/26 02:08:46;;;;;;;11.40;5.93;;;;;;;18.80;100.00;101244.09;1938726;29;20032;-80
2022/08/26 02:09:44;;;;;;;10.15;5.35;;;;;;;18.78;100.00;101249.50;1938698;29;20035;-81
2022/08/26 02:10:43;;;;;;;9.07;4.82;;;;;;;18.83;100.00;101258.91;1946145;28;20031;-81
2022/08/26 02:11:40;;;;;;;10.43;5.30;;;;;;;18.82;100.00;101257.22;1938826;29;20027;-81
2022/08/26 02:12:41;;;;;;;10.60;5.22;;;;;;;18.81;100.00;101252.88;1938554;29;20115;-81
2022/08/26 02:13:54;;;;;;;14.07;5.65;;;;;;;18.79;100.00;101256.47;1945894;29;20042;-80
2022/08/26 02:14:58;;;;;;;11.23;4.85;;;;;;;18.79;100.00;101253.81;1938553;29;20042;-81
2022/08/26 02:15:57;;;;;;;11.55;5.10;;;;;;;18.77;100.00;101249.59;1931331;29;20042;-81
2022/08/26 02:16:55;;;;;;;15.23;5.55;;;;;;;18.83;100.00;101251.81;1931288;29;20039;-79
2022/08/26 02:17:53;;;;;;;9.85;4.68;;;;;;;18.79;100.00;101256.47;1938328;29;20094;-81
2022/08/26 02:18:52;;;;;;;11.63;4.70;;;;;;;18.76;100.00;101256.72;1945350;28;20027;-80
2022/08/26 02:19:51;;;;;;;13.68;4.90;;;;;;;18.79;100.00;101256.47;1938874;29;20328;-80
2022/08/26 02:20:48;;;;;;;11.55;4.80;;;;;;;18.76;100.00;101253.22;1931001;29;20384;-81
2022/08/26 02:21:48;;;;;;;8.65;4.55;;;;;;;18.74;100.00;101253.31;1938189;29;20089;-82
2022/08/26 02:22:46;;;;;;;8.73;5.03;;;;;;;18.77;100.00;101263.69;1945666;29;20027;-80
2022/08/26 02:23:44;;;;;;;11.18;4.50;;;;;;;18.83;100.00;101261.53;1946260;29;20023;-81
2022/08/26 02:24:53;;;;;;;10.43;4.13;;;;;;;18.81;100.00;101263.47;1938670;29;20496;-81
2022/08/26 02:26:06;;;;;;;10.20;4.88;;;;;;;18.73;100.00;101259.56;1946213;29;20031;-82
2022/08/26 02:27:04;;;;;;;10.60;4.30;;;;;;;18.74;100.00;101263.88;1946028;29;20511;-80
2022/08/26 02:28:02;;;;;;;12.55;4.20;;;;;;;18.72;100.00;101259.66;1938486;29;20075;-80
2022/08/26 02:29:12;;;;;;;10.10;4.25;;;;;;;18.72;100.00;101264.97;1931513;29;20039;-79
2022/08/26 02:30:28;;;;;;;9.93;4.45;;;;;;;18.80;100.00;101270.53;1937854;29;20062;-80
2022/08/26 02:31:25;;;;;;;11.98;3.95;;;;;;;18.72;100.00;101270.25;1946136;28;20122;-81
2022/08/26 02:32:23;;;;;;;8.75;3.80;;;;;;;18.75;100.00;101276.16;1938719;29;20023;-81
2022/08/26 02:33:21;;;;;;;10.52;4.03;;;;;;;18.73;100.00;101272.78;1924253;29;20039;-81
2022/08/26 02:34:25;;;;;;;10.35;4.13;;;;;;;18.78;100.00;101281.22;1937751;29;20050;-82
2022/08/26 02:35:22;;;;;;;8.27;3.55;;;;;;;18.79;100.00;101282.91;1946030;28;20023;-80
2022/08/26 02:36:23;;;;;;;15.68;3.95;;;;;;;18.75;100.00;101275.31;1938613;29;20059;-81
2022/08/26 02:37:21;;;;;;;9.35;3.78;;;;;;;18.73;100.00;101283.34;1938601;29;20031;-81
2022/08/26 02:38:18;;;;;;;7.32;3.38;;;;;;;18.74;100.00;101290.31;1946096;29;20042;-81
2022/08/26 02:39:17;;;;;;;8.05;3.70;;;;;;;18.74;100.00;101285.03;1934129;29;20047;-81
2022/08/26 02:40:20;;;;;;;9.50;3.83;;;;;;;18.74;100.00;101279.75;1924392;29;20036;-82
2022/08/26 02:41:17;;;;;;;9.05;3.50;;;;;;;18.72;100.00;101279.00;1938636;29;20027;-81
2022/08/26 02:42:15;;;;;;;10.18;3.42;;;;;;;18.77;100.00;101284.81;1938487;29;20090;-82
2022/08/26 02:43:12;;;;;;;6.88;3.20;;;;;;;18.82;100.00;101275.72;1939551;28;20370;-81
2022/08/26 02:44:10;;;;;;;8.73;3.22;;;;;;;18.78;100.00;101281.22;1930869;29;20112;-82
2022/08/26 02:45:09;;;;;;;7.32;3.17;;;;;;;18.73;100.00;101271.94;1931144;29;20495;-81
2022/08/26 02:46:07;;;;;;;11.30;3.17;;;;;;;18.67;100.00;101273.19;1937867;29;20028;-83
2022/08/26 02:47:06;;;;;;;10.30;3.40;;;;;;;18.70;100.00;101273.00;1931210;29;20056;-81
2022/08/26 02:48:11;;;;;;;9.25;3.20;;;;;;;18.66;100.00;101266.22;1931007;29;20058;-81
2022/08/26 02:49:11;;;;;;;7.68;3.10;;;;;;;18.77;100.00;101271.59;1945965;29;20031;-82
2022/08/26 02:50:09;;;;;;;5.82;2.92;;;;;;;18.69;100.00;101266.03;1945996;29;20118;-81
2022/08/26 02:51:07;;;;;;;9.93;3.42;;;;;;;18.64;100.00;101262.84;1931430;29;20036;-81
2022/08/26 02:52:04;;;;;;;6.07;2.90;;;;;;;18.64;100.00;101265.47;1923531;29;20388;-82
2022/08/26 02:53:03;;;;;;;12.27;3.13;;;;;;;18.61;100.00;101269.19;1937884;29;20024;-82
2022/08/26 02:54:00;;;;;;;11.68;2.90;;;;;;;18.66;100.00;101272.38;1945302;29;20031;-82
2022/08/26 02:54:58;;;;;;;11.30;3.35;;;;;;;18.57;100.00;101272.19;1931782;29;20480;-81
2022/08/26 02:55:55;;;;;;;7.85;3.05;;;;;;;18.56;100.00;101271.31;1931315;29;20039;-82
2022/08/26 02:56:54;;;;;;;7.40;2.97;;;;;;;18.56;100.00;101273.09;1938482;29;20063;-80
2022/08/26 02:57:51;;;;;;;9.27;3.15;;;;;;;18.60;100.00;101271.94;1938567;29;20016;-80
2022/08/26 02:58:49;;;;;;;7.32;2.90;;;;;;;18.57;100.00;101266.88;1946023;28;20364;-83
2022/08/26 02:59:46;;;;;;;8.50;3.03;;;;;;;18.55;100.00;101277.56;1938724;29;20035;-82
2022/08/26 03:00:46;;;;;;;10.82;3.25;;;;;;;18.59;100.00;101272.91;1924326;29;20032;-81
2022/08/26 03:01:44;;;;;;;11.20;2.92;;;;;;;18.53;100.00;101277.66;1938171;29;20052;-82
2022/08/26 03:02:41;;;;;;;9.18;3.22;;;;;;;18.54;100.00;101278.50;1937865;29;20349;-81
2022/08/26 03:03:39;;;;;;;7.93;3.30;;;;;;;18.57;100.00;101277.47;1939282;28;20039;-84
2022/08/26 03:04:39;;;;;;;5.07;2.67;;;;;;;18.58;100.00;101271.22;1945780;28;20043;-80
2022/08/26 03:05:36;;;;;;;7.80;3.10;;;;;;;18.57;100.00;101267.72;1946122;29;20050;-81
2022/08/26 03:06:35;;;;;;;10.75;3.00;;;;;;;18.47;100.00;101272.78;1932479;29;20276;-82
2022/08/26 03:07:33;;;;;;;8.40;2.90;;;;;;;18.50;100.00;101272.59;1931188;29;20379;-81
2022/08/26 03:08:30;;;;;;;11.07;3.00;;;;;;;18.53;100.00;101272.38;1931035;29;20036;-81
2022/08/26 03:09:28;;;;;;;8.77;3.03;;;;;;;18.49;100.00;101268.25;1938422;29;20038;-81
2022/08/26 03:10:25;;;;;;;8.07;2.80;;;;;;;18.48;100.00;101271.00;1938587;29;20114;-80
2022/08/26 03:11:23;;;;;;;9.70;3.08;;;;;;;18.50;100.00;101267.31;1946052;28;20439;-81
2022/08/26 03:12:20;;;;;;;7.07;3.00;;;;;;;18.52;100.00;101270.66;1938501;29;20036;-82
2022/08/26 03:13:18;;;;;;;5.63;2.83;;;;;;;18.50;100.00;101272.59;1931798;29;20032;-81
2022/08/26 03:14:15;;;;;;;8.68;3.22;;;;;;;18.51;100.00;101268.97;1937620;29;20078;-82
2022/08/26 03:15:15;;;;;;;11.15;3.17;;;;;;;18.53;100.00;101269.75;1930918;29;20032;-80
2022/08/26 03:16:13;;;;;;;9.70;3.55;;;;;;;18.56;100.00;101268.69;1939450;29;20031;-80
2022/08/26 03:17:11;;;;;;;11.10;3.28;;;;;;;18.50;100.00;101269.94;1930870;29;20424;-82
2022/08/26 03:18:09;;;;;;;7.30;2.70;;;;;;;18.51;100.00;101273.44;1924226;29;20100;-81
2022/08/26 03:19:09;;;;;;;7.43;3.00;;;;;;;18.52;100.00;101268.03;1931823;29;20074;-81
2022/08/26 03:20:09;;;;;;;7.28;2.80;;;;;;;18.54;100.00;101270.56;1933077;29;20095;-80
2022/08/26 03:21:11;;;;;;;10.95;3.22;;;;;;;18.50;100.00;101266.44;1932895;29;20119;-80
2022/08/26 03:22:12;;;;;;;7.90;3.38;;;;;;;18.53;100.00;101274.16;1932623;29;20436;-80
2022/08/26 03:23:11;;;;;;;7.60;3.35;;;;;;;18.55;100.00;101268.78;1940098;29;20093;-83
2022/08/26 03:24:12;;;;;;;7.40;3.33;;;;;;;18.56;100.00;101270.47;1939775;29;20422;-81
2022/08/26 03:25:12;;;;;;;8.15;3.53;;;;;;;18.50;100.00;101266.44;1925468;29;20032;-81
2022/08/26 03:26:13;;;;;;;10.60;3.58;;;;;;;18.51;100.00;101266.34;1924976;29;20033;-81
2022/08/26 03:27:11;;;;;;;9.43;3.67;;;;;;;18.57;100.00;101277.47;1932470;29;20032;-83
2022/08/26 03:28:08;;;;;;;7.93;3.38;;;;;;;18.52;100.00;101268.03;1934079;29;20107;-80
2022/08/26 03:30:40;;;;;;;13.68;4.30;;;;;;;18.51;100.00;101278.72;1946212;29;20128;-81
2022/08/26 03:31:38;;;;;;;10.25;3.60;;;;;;;18.49;100.00;101275.34;1947319;29;20034;-81
2022/08/26 03:32:35;;;;;;;12.00;4.20;;;;;;;18.50;100.00;101277.00;1947428;29;20038;-81
2022/08/26 03:33:33;;;;;;;12.63;4.00;;;;;;;18.52;100.00;101275.94;1939892;29;20138;-81
2022/08/26 03:34:30;;;;;;;11.48;4.07;;;;;;;18.57;100.00;101272.19;1932192;29;20134;-80
2022/08/26 03:35:30;;;;;;;9.43;4.07;;;;;;;18.56;100.00;101286.31;1939221;29;20075;-80
2022/08/26 03:36:27;;;;;;;9.48;4.43;;;;;;;18.53;100.00;101282.94;1939204;29;20035;-80
2022/08/26 03:37:25;;;;;;;11.93;4.70;;;;;;;18.55;100.00;101285.50;1939960;29;20443;-80
2022/08/26 03:38:26;;;;;;;10.15;4.45;;;;;;;18.59;100.00;101280.81;1946183;28;20031;-82
2022/08/26 03:39:24;;;;;;;6.57;4.07;;;;;;;18.53;100.00;101277.66;1939820;29;20036;-81
2022/08/26 03:40:22;;;;;;;8.30;4.18;;;;;;;18.58;100.00;101284.44;1932239;29;20032;-81
2022/08/26 03:41:20;;;;;;;8.85;4.22;;;;;;;18.55;100.00;101284.63;1939179;29;20027;-80
2022/08/26 03:42:17;;;;;;;11.27;4.28;;;;;;;18.51;100.00;101276.91;1938904;29;20090;-82
2022/08/26 03:43:16;;;;;;;10.80;4.53;;;;;;;18.55;100.00;101280.19;1947342;29;20031;-81
2022/08/26 03:44:13;;;;;;;9.20;4.10;;;;;;;18.57;100.00;101277.47;1947324;29;20050;-81
2022/08/26 03:45:14;;;;;;;9.05;4.05;;;;;;;18.58;100.00;101276.50;1947365;29;20034;-82
2022/08/26 03:46:11;;;;;;;12.20;5.63;;;;;;;18.66;100.00;101271.50;1939680;29;20087;-80
2022/08/26 03:47:11;;;;;;;13.75;4.47;;;;;;;18.60;100.00;101269.28;1939865;29;20163;-81
2022/08/26 03:48:12;;;;;;;8.27;4.45;;;;;;;18.59;100.00;101280.81;1939427;29;20402;-81
2022/08/26 03:49:10;;;;;;;13.57;4.10;;;;;;;18.58;100.00;101281.78;1939880;29;20456;-81
2022/08/26 03:50:12;;;;;;;11.45;4.53;;;;;;;18.61;100.00;101284.22;1939321;29;20040;-81
2022/08/26 03:51:17;;;;;;;7.60;4.03;;;;;;;18.62;100.00;101276.16;1932239;29;20130;-83
2022/08/26 03:52:14;;;;;;;11.73;4.15;;;;;;;18.64;100.00;101281.34;1932592;29;20123;-80
2022/08/26 03:53:12;;;;;;;10.43;3.97;;;;;;;18.69;100.00;101275.75;1932161;29;20028;-80
2022/08/26 03:54:12;;;;;;;12.77;4.32;;;;;;;18.71;100.00;101279.97;1938896;29;20046;-80
2022/08/26 03:55:10;;;;;;;10.20;4.40;;;;;;;18.70;100.00;101278.28;1946772;29;20099;-82
2022/08/26 03:56:10;;;;;;;12.65;4.30;;;;;;;18.67;100.00;101278.50;1940163;29;20467;-80
2022/08/26 03:57:07;;;;;;;;;;;;;;;18.58;100.00;101279.13;1939516;29;20430;-80
2022/08/26 03:58:05;;;;;;;10.77;3.90;;;;;;;18.56;100.00;101276.59;1939774;29;19969;-81
2022/08/26 03:59:04;;;;;;;12.02;3.90;;;;;;;18.57;100.00;101273.00;1946314;29;20487;-80
2022/08/26 04:00:07;;;;;;;11.23;3.65;;;;;;;18.65;100.00;101281.22;1939748;29;20131;-80
2022/08/26 04:01:05;;;;;;;9.15;3.85;;;;;;;18.69;100.00;101278.38;1932102;29;20188;-80
2022/08/26 04:02:04;;;;;;;9.57;3.90;;;;;;;18.58;100.00;101279.13;1932222;29;20098;-80
2022/08/26 04:03:02;;;;;;;10.23;3.70;;;;;;;18.59;100.00;101275.53;1946439;28;20032;-80
2022/08/26 04:04:00;;;;;;;8.27;3.53;;;;;;;18.60;100.00;101272.78;1947178;29;20386;-81
2022/08/26 04:04:57;;;;;;;9.50;3.90;;;;;;;18.61;100.00;101273.66;1940049;29;20106;-81
2022/08/26 04:05:55;;;;;;;6.63;3.50;;;;;;;18.58;100.00;101285.25;1939713;29;20058;-80
2022/08/26 04:06:57;;;;;;;10.30;3.88;;;;;;;18.61;100.00;101281.56;1938751;29;20059;-80
2022/08/26 04:07:54;;;;;;;10.18;3.80;;;;;;;18.63;100.00;101274.38;1939717;29;20073;-80
2022/08/26 04:08:59;;;;;;;8.40;3.88;;;;;;;18.64;100.00;101289.25;1940065;29;20071;-80
2022/08/26 04:09:57;;;;;;;10.65;3.60;;;;;;;18.58;100.00;101273.84;1940038;29;20074;-80
2022/08/26 04:10:55;;;;;;;10.32;3.78;;;;;;;18.67;100.00;101283.78;1939577;29;20122;-80
2022/08/26 04:11:54;;;;;;;8.20;3.53;;;;;;;18.62;100.00;101280.63;1931973;29;20020;-81
2022/08/26 04:12:52;;;;;;;7.80;3.85;;;;;;;18.54;100.00;101278.50;1939127;29;20042;-81
2022/08/26 04:13:52;;;;;;;8.90;3.75;;;;;;;18.52;100.00;101283.88;1938773;29;20035;-81
2022/08/26 04:14:51;;;;;;;7.68;3.22;;;;;;;18.56;100.00;101278.38;1931995;29;20031;-81
2022/08/26 04:15:49;;;;;;;10.45;3.90;;;;;;;18.59;100.00;101284.31;1939265;29;20047;-80
2022/08/26 04:16:48;;;;;;;8.38;3.53;;;;;;;18.59;100.00;101280.81;1946619;29;20106;-80
2022/08/26 04:17:46;;;;;;;8.63;3.65;;;;;;;18.52;100.00;101275.94;1939388;29;20055;-81
2022/08/26 04:18:44;;;;;;;10.32;3.58;;;;;;;18.55;100.00;101279.34;1932009;29;20020;-81
2022/08/26 04:19:41;;;;;;;8.60;3.75;;;;;;;18.57;100.00;101278.28;1931175;29;20184;-81
2022/08/26 04:20:41;;;;;;;6.22;3.20;;;;;;;18.56;100.00;101275.75;1931323;29;20115;-81
2022/08/26 04:21:40;;;;;;;11.82;3.83;;;;;;;18.56;100.00;101275.75;1931413;29;20040;-80
2022/08/26 04:22:37;;;;;;;8.43;3.20;;;;;;;18.52;100.00;101273.31;1939431;29;20047;-80
2022/08/26 04:23:35;;;;;;;11.95;3.78;;;;;;;18.53;100.00;101276.81;1946399;29;20166;-82
2022/08/26 04:24:33;;;;;;;9.30;3.42;;;;;;;18.59;100.00;101275.53;1939449;29;20068;-81
2022/08/26 04:25:31;;;;;;;7.63;3.40;;;;;;;18.55;100.00;101274.06;1931999;29;20032;-81
2022/08/26 04:26:38;;;;;;;6.78;3.80;;;;;;;18.58;100.00;101279.97;1938613;29;20448;-81
2022/08/26 04:27:36;;;;;;;10.35;3.50;;;;;;;18.60;100.00;101272.78;1939348;29;20070;-82
2022/08/26 04:28:34;;;;;;;8.00;3.63;;;;;;;18.57;100.00;101269.53;1946846;28;20376;-80
2022/08/26 04:29:31;;;;;;;13.82;4.15;;;;;;;18.52;100.00;101272.47;1938876;29;20063;-80
2022/08/26 04:30:29;;;;;;;10.40;3.78;;;;;;;18.51;100.00;101265.53;1939002;29;20056;-82
2022/08/26 04:31:29;;;;;;;11.35;3.67;;;;;;;18.48;100.00;101269.19;1946193;29;20042;-81
2022/08/26 04:32:26;;;;;;;9.77;3.28;;;;;;;18.50;100.00;101271.72;1947046;28;20476;-81
2022/08/26 04:33:24;;;;;;;8.35;3.30;;;;;;;18.48;100.00;101269.19;1939564;29;20026;-82
2022/08/26 04:34:27;;;;;;;9.55;3.38;;;;;;;18.52;100.00;101264.56;1939372;29;20352;-81
2022/08/26 04:35:24;;;;;;;9.55;3.45;;;;;;;18.47;100.00;101270.16;1947097;29;20035;-80
2022/08/26 04:36:25;;;;;;;9.35;3.60;;;;;;;18.47;100.00;101269.31;1939288;29;20035;-82